Time;durP1;ratioP1;P1;durP2;ratioP2;P2;SDS_P1;SDS_P2;PMS_P1;PMS_P2;Temp;Humidity;BMP_temperature;BMP_pressure;BME280_temperature;BME280_humidity;BME280_pressure;Samples;Min_cycle;Max_cycle;Signal;HPM_P1;HPM_P2
2022/11/29 00:04:17;;;;;;;41.73;19.80;;;;;;;2.71;100.00;101132.55;5094356;56;1140986;-67
2022/11/29 00:09:23;;;;;;;42.97;21.57;;;;;;;2.71;100.00;101123.86;5029771;57;1141078;-67
2022/11/29 00:14:29;;;;;;;44.03;21.20;;;;;;;2.70;100.00;101124.31;5009684;57;1141056;-65
2022/11/29 00:19:36;;;;;;;45.60;21.20;;;;;;;2.67;100.00;101128.34;5004774;57;1141010;-67
2022/11/29 00:24:42;;;;;;;40.57;21.13;;;;;;;2.65;100.00;101126.23;5102663;56;1141050;-69
2022/11/29 00:29:48;;;;;;;45.97;21.80;;;;;;;2.67;100.00;101124.42;4999541;57;1141028;-65
2022/11/29 00:34:53;;;;;;;42.47;21.27;;;;;;;2.67;100.00;101127.48;5000562;57;1141070;-65
2022/11/29 00:39:59;;;;;;;46.50;21.10;;;;;;;2.65;100.00;101127.53;5029394;57;1140885;-66
2022/11/29 00:45:05;;;;;;;44.37;21.50;;;;;;;2.67;100.00;101131.40;5016724;56;1141100;-66
2022/11/29 00:50:11;;;;;;;46.28;20.70;;;;;;;2.66;100.00;101127.08;5093645;56;1140977;-64
2022/11/29 00:55:17;;;;;;;42.93;21.73;;;;;;;2.62;100.00;101128.09;5113649;56;1140864;-69
2022/11/29 01:00:24;;;;;;;37.27;17.83;;;;;;;2.62;100.00;101122.41;5093680;56;1141537;-68
2022/11/29 01:05:32;;;;;;;46.00;22.27;;;;;;;2.62;100.00;101121.11;4974490;57;1140959;-66
2022/11/29 01:10:38;;;;;;;45.80;21.27;;;;;;;2.63;100.00;101125.88;5040065;56;1141008;-64
2022/11/29 01:15:44;;;;;;;40.93;19.50;;;;;;;2.60;100.00;101120.78;5053104;56;1140949;-67
2022/11/29 01:20:59;;;;;;;44.38;22.55;;;;;;;2.59;100.00;101119.94;5011032;56;1141039;-68
2022/11/29 01:26:09;;;;;;;43.63;20.52;;;;;;;2.58;100.00;101122.59;5094434;56;1140966;-64
2022/11/29 01:31:22;;;;;;;42.33;19.80;;;;;;;2.58;100.00;101123.91;5031010;56;1140997;-66
2022/11/29 01:36:28;;;;;;;39.33;19.70;;;;;;;2.58;100.00;101114.77;5010572;56;1141108;-66
2022/11/29 01:41:36;;;;;;;46.33;22.53;;;;;;;2.62;100.00;101118.95;5011245;57;1140944;-67
2022/11/29 01:46:46;;;;;;;43.33;20.67;;;;;;;2.61;100.00;101118.09;5054429;56;1140899;-68
2022/11/29 01:52:01;;;;;;;43.17;20.80;;;;;;;2.60;100.00;101123.40;4930348;57;1141147;-66
2022/11/29 01:57:10;;;;;;;45.17;20.88;;;;;;;2.60;100.00;101133.36;4929917;58;1141103;-65
2022/11/29 02:02:29;;;;;;;43.33;22.40;;;;;;;2.60;100.00;101133.36;4990765;56;1141097;-67
2022/11/29 02:07:35;;;;;;;47.80;21.93;;;;;;;2.54;100.00;101121.84;5006544;57;1141015;-65
2022/11/29 02:12:55;;;;;;;39.43;20.37;;;;;;;2.56;100.00;101120.03;5095620;56;1141114;-66
2022/11/29 02:18:14;;;;;;;43.63;22.57;;;;;;;2.57;100.00;101120.89;5027579;57;1141145;-65
2022/11/29 02:24:01;;;;;;;51.03;23.00;;;;;;;2.54;100.00;101115.77;5073741;56;1141084;-65
2022/11/29 02:29:47;;;;;;;48.93;22.13;;;;;;;2.55;100.00;101122.25;5103524;55;1140958;-66
2022/11/29 02:35:22;;;;;;;45.92;21.20;;;;;;;2.55;100.00;101123.55;5148231;55;1140961;-69
2022/11/29 02:40:57;;;;;;;42.90;20.87;;;;;;;2.55;100.00;101123.55;5063884;55;1140932;-67
2022/11/29 02:46:21;;;;;;;49.47;21.90;;;;;;;2.50;100.00;101120.69;5023315;56;1140953;-68
2022/11/29 02:52:01;;;;;;;44.70;20.63;;;;;;;2.54;100.00;101131.44;5153075;55;1141005;-68
2022/11/29 02:57:39;;;;;;;41.30;21.30;;;;;;;2.53;100.00;101131.89;5208202;55;1140989;-67
2022/11/29 03:03:03;;;;;;;45.50;21.27;;;;;;;2.52;100.00;101139.31;5097612;56;1140937;-66
2022/11/29 03:08:49;;;;;;;44.85;21.45;;;;;;;2.52;100.00;101138.46;5076761;56;1140973;-65
2022/11/29 03:14:16;;;;;;;43.30;20.20;;;;;;;2.46;100.00;101144.28;5011550;57;1141120;-68
2022/11/29 03:19:49;;;;;;;44.23;22.83;;;;;;;2.45;100.00;101150.41;5039651;56;1140925;-67
2022/11/29 03:25:03;;;;;;;49.50;22.15;;;;;;;2.47;100.00;101149.91;5084604;56;1141080;-69
2022/11/29 03:30:12;;;;;;;47.93;22.80;;;;;;;2.46;100.00;101152.56;5012633;57;1140994;-67
2022/11/29 03:35:49;;;;;;;44.08;21.23;;;;;;;2.46;100.00;101152.56;5051966;56;1140914;-68
2022/11/29 03:41:15;;;;;;;45.50;22.37;;;;;;;2.44;100.00;101154.41;5193257;55;1140954;-66
2022/11/29 03:46:42;;;;;;;45.80;19.77;;;;;;;2.43;100.00;101157.92;5140667;55;1141005;-68
2022/11/29 03:52:10;;;;;;;41.87;20.73;;;;;;;2.41;100.00;101162.33;5067290;55;1141054;-69
2022/11/29 03:57:20;;;;;;;46.23;22.10;;;;;;;2.42;100.00;101163.59;5172884;55;1140985;-68
2022/11/29 04:02:48;;;;;;;61.27;34.10;;;;;;;2.41;100.00;101163.19;5155897;55;1140910;-69
2022/11/29 04:08:07;;;;;;;43.73;22.37;;;;;;;2.39;100.00;101168.91;5185665;55;1140946;-67
2022/11/29 04:13:52;;;;;;;48.33;24.95;;;;;;;2.36;100.00;101161.17;5115391;55;1140919;-69
2022/11/29 04:19:40;;;;;;;50.03;24.87;;;;;;;2.37;100.00;101169.86;5079642;55;1141136;-65
2022/11/29 04:25:19;;;;;;;46.15;22.95;;;;;;;2.31;100.00;101174.81;5104432;55;1141137;-67
2022/11/29 04:30:27;;;;;;;301.80;136.33;;;;;;;2.31;100.00;101180.48;5122561;55;1141077;-70
2022/11/29 04:36:14;;;;;;;209.37;89.37;;;;;;;2.28;100.00;101180.61;5102536;55;1145093;-67
2022/11/29 04:41:39;;;;;;;85.40;42.67;;;;;;;2.26;100.00;101187.19;5122308;55;1142998;-69
2022/11/29 04:47:24;;;;;;;83.60;45.95;;;;;;;2.26;100.00;101191.10;5112567;55;1141019;-65
2022/11/29 04:52:53;;;;;;;48.68;25.82;;;;;;;2.26;100.00;101194.16;5099829;56;1140913;-68
2022/11/29 04:58:28;;;;;;;53.20;26.10;;;;;;;2.22;100.00;101196.02;5099696;56;1141146;-68
2022/11/29 05:04:04;;;;;;;49.67;27.90;;;;;;;2.20;100.00;101206.95;5162440;55;1140923;-66
2022/11/29 05:09:37;;;;;;;53.52;27.32;;;;;;;2.15;100.00;101207.53;5186275;55;1140926;-67
2022/11/29 05:15:15;;;;;;;59.50;33.80;;;;;;;2.14;100.00;101208.91;5186097;55;1141034;-68
2022/11/29 05:20:58;;;;;;;48.07;24.83;;;;;;;2.13;100.00;101210.67;5204837;55;1140840;-65
2022/11/29 05:26:17;;;;;;;69.30;32.03;;;;;;;2.09;100.00;101211.66;5174254;55;1141080;-68
2022/11/29 05:31:59;;;;;;;67.20;30.97;;;;;;;2.06;100.00;101217.82;5095835;56;1141007;-65
2022/11/29 05:37:47;;;;;;;68.63;30.57;;;;;;;2.08;100.00;101223.00;5113935;55;1141203;-67
2022/11/29 05:43:14;;;;;;;106.60;41.03;;;;;;;2.01;100.00;101227.98;5131314;55;1141032;-69
2022/11/29 05:48:52;;;;;;;94.27;33.83;;;;;;;2.00;100.00;101237.56;5127237;55;1143154;-67
2022/11/29 05:54:26;;;;;;;108.60;65.07;;;;;;;2.02;100.00;101244.05;5098206;55;1140942;-67
2022/11/29 05:59:34;;;;;;;56.80;30.15;;;;;;;2.02;100.00;101240.13;5093736;55;1143194;-66
2022/11/29 06:05:02;;;;;;;63.42;32.15;;;;;;;2.02;100.00;101247.95;5098528;55;1141151;-64
2022/11/29 06:10:17;;;;;;;56.40;28.40;;;;;;;2.04;100.00;101251.38;5118347;55;1140904;-69
2022/11/29 06:15:58;;;;;;;60.50;29.37;;;;;;;2.05;100.00;101256.55;5098459;55;1140762;-68
2022/11/29 06:21:32;;;;;;;66.95;29.90;;;;;;;2.02;100.00;101259.25;5099060;55;1140995;-67
2022/11/29 06:26:48;;;;;;;64.93;28.20;;;;;;;2.00;100.00;101264.10;5099437;56;1140896;-65
2022/11/29 06:32:10;;;;;;;76.87;36.80;;;;;;;1.96;100.00;101269.03;5090713;56;1140925;-69
2022/11/29 06:37:35;;;;;;;63.47;28.93;;;;;;;1.95;100.00;101273.39;5130490;55;1140956;-67
2022/11/29 06:42:41;;;;;;;64.73;31.43;;;;;;;1.92;100.00;101283.06;5120591;55;1140963;-66
2022/11/29 06:48:02;;;;;;;55.97;27.27;;;;;;;1.95;100.00;101286.89;5107951;55;1140885;-65
2022/11/29 06:53:35;;;;;;;57.80;28.92;;;;;;;1.91;100.00;101283.51;5119198;56;1140945;-68
2022/11/29 06:59:18;;;;;;;69.60;32.53;;;;;;;1.92;100.00;101292.19;5097800;55;1140799;-67
2022/11/29 07:05:12;;;;;;;52.50;27.13;;;;;;;1.88;100.00;101294.02;5176222;55;1140949;-67
2022/11/29 07:10:20;;;;;;;64.62;31.10;;;;;;;1.83;100.00;101298.55;5185362;55;1140974;-68
2022/11/29 07:15:27;;;;;;;60.53;29.80;;;;;;;1.84;100.00;101301.97;5205707;55;1141006;-66
2022/11/29 07:21:09;;;;;;;53.93;28.97;;;;;;;1.85;100.00;101301.94;5148485;55;1141087;-68
2022/11/29 07:26:45;;;;;;;57.57;28.33;;;;;;;1.86;100.00;101307.56;5099474;56;1141168;-67
2022/11/29 07:32:18;;;;;;;62.97;29.30;;;;;;;1.86;100.00;101303.64;5098457;56;1141094;-70
2022/11/29 07:37:35;;;;;;;;;;;;;;;1.81;100.00;101301.64;5168546;55;1140837;-63
2022/11/29 07:42:54;;;;;;;54.17;28.80;;;;;;;1.83;100.00;101310.73;5205664;55;974073;-64
2022/11/29 07:48:00;;;;;;;69.53;34.90;;;;;;;1.85;100.00;101312.81;5147539;55;1138804;-69
2022/11/29 07:53:06;;;;;;;63.98;31.60;;;;;;;1.80;100.00;101320.80;5119407;55;1142190;-66
2022/11/29 07:58:14;;;;;;;54.65;28.27;;;;;;;1.81;100.00;101322.95;5098807;55;1141104;-68
2022/11/29 08:03:20;;;;;;;58.03;27.17;;;;;;;1.85;100.00;101323.25;5163327;55;1141159;-69
2022/11/29 08:08:25;;;;;;;65.13;28.27;;;;;;;1.80;100.00;101323.84;5205622;55;1141159;-66
2022/11/29 08:13:31;;;;;;;49.50;28.07;;;;;;;1.82;100.00;101327.27;5185257;55;1140984;-69
2022/11/29 08:18:39;;;;;;;60.60;29.27;;;;;;;1.80;100.00;101326.02;5117232;55;1141066;-64
2022/11/29 08:23:48;;;;;;;46.63;26.27;;;;;;;1.76;100.00;101326.98;5118527;56;1141142;-66
2022/11/29 08:28:53;;;;;;;54.37;27.30;;;;;;;1.75;100.00;101329.19;5092808;56;1141154;-66
2022/11/29 08:33:59;;;;;;;59.93;30.83;;;;;;;1.82;100.00;101333.80;5097674;56;1140980;-66
2022/11/29 08:39:05;;;;;;;64.13;29.53;;;;;;;1.83;100.00;101336.81;5146433;55;1140992;-69
2022/11/29 08:44:11;;;;;;;78.92;36.45;;;;;;;1.81;100.00;101335.99;5131186;55;1141060;-65
2022/11/29 08:49:17;;;;;;;60.60;29.55;;;;;;;1.82;100.00;101338.56;5100205;55;1141149;-64
2022/11/29 08:54:23;;;;;;;62.57;29.10;;;;;;;1.85;100.00;101338.45;5117724;55;1141069;-64
2022/11/29 08:59:28;;;;;;;67.83;34.30;;;;;;;1.89;100.00;101340.08;5097702;55;1141118;-64
2022/11/29 09:04:34;;;;;;;68.55;34.65;;;;;;;1.90;100.00;101346.16;5182748;55;1141163;-68
2022/11/29 09:09:40;;;;;;;60.47;30.80;;;;;;;1.89;100.00;101343.14;5204960;55;1140924;-68
2022/11/29 09:14:46;;;;;;;71.47;32.97;;;;;;;1.88;100.00;101343.58;5117760;55;1140950;-65
2022/11/29 09:19:52;;;;;;;71.50;32.60;;;;;;;1.89;100.00;101346.59;5098179;56;1140855;-68
2022/11/29 09:24:58;;;;;;;70.97;35.37;;;;;;;1.88;100.00;101347.95;5118407;56;1141034;-65
2022/11/29 09:30:05;;;;;;;61.37;30.63;;;;;;;1.88;100.00;101352.71;5099646;56;1143629;-65
2022/11/29 09:35:10;;;;;;;60.17;32.88;;;;;;;1.87;100.00;101354.91;5099363;56;1140946;-67
2022/11/29 09:40:23;;;;;;;68.33;34.70;;;;;;;1.89;100.00;101354.88;5119448;55;1140915;-68
2022/11/29 09:45:38;;;;;;;62.97;31.47;;;;;;;1.93;100.00;101360.41;5114839;55;1140905;-65
2022/11/29 09:51:03;;;;;;;55.80;27.70;;;;;;;1.93;100.00;101361.27;5185541;55;1140945;-65
2022/11/29 09:56:28;;;;;;;58.50;28.53;;;;;;;1.95;100.00;101359.92;5181969;55;1141111;-66
2022/11/29 10:01:40;;;;;;;63.60;30.82;;;;;;;2.00;100.00;101357.58;5185102;55;1141026;-65
2022/11/29 10:07:02;;;;;;;80.85;37.03;;;;;;;1.91;100.00;101356.55;5201608;55;1141098;-65
2022/11/29 10:12:31;;;;;;;67.97;32.37;;;;;;;1.90;100.00;101353.53;5086314;55;1141472;-65
2022/11/29 10:17:53;;;;;;;77.50;41.80;;;;;;;1.89;100.00;101360.09;4864815;58;1140950;-67
2022/11/29 10:23:06;;;;;;;61.03;32.37;;;;;;;1.88;100.00;101358.38;4778230;59;1141373;-66
2022/11/29 10:28:25;;;;;;;60.77;31.70;;;;;;;1.85;100.00;101358.45;4884881;58;1141141;-66
2022/11/29 10:33:35;;;;;;;67.73;33.93;;;;;;;1.89;100.00;101364.00;4865451;58;1140982;-66
2022/11/29 10:38:40;;;;;;;81.97;37.85;;;;;;;1.91;100.00;101360.45;4835802;59;1141176;-69
2022/11/29 10:43:47;;;;;;;62.43;34.33;;;;;;;1.93;100.00;101360.41;4856842;59;1141303;-66
2022/11/29 10:48:54;;;;;;;66.27;33.47;;;;;;;1.95;100.00;101374.28;4833835;59;1141008;-66
2022/11/29 10:54:23;;;;;;;68.53;33.83;;;;;;;1.93;100.00;101368.24;4892830;57;1141100;-66
2022/11/29 10:59:32;;;;;;;72.42;35.25;;;;;;;1.93;100.00;101370.41;5030849;56;1140957;-67
2022/11/29 11:04:44;;;;;;;66.33;31.93;;;;;;;1.95;100.00;101375.58;5062964;56;1140880;-67
2022/11/29 11:09:54;;;;;;;66.27;34.93;;;;;;;2.01;100.00;101376.69;5025424;56;1140935;-67
2022/11/29 11:15:27;;;;;;;71.40;34.10;;;;;;;2.01;100.00;101375.38;5122371;55;1141119;-67
2022/11/29 11:20:37;;;;;;;71.97;35.60;;;;;;;2.00;100.00;101373.67;5122448;55;1141165;-67
2022/11/29 11:25:43;;;;;;;75.87;40.10;;;;;;;2.02;100.00;101377.95;5142065;55;1141050;-69
2022/11/29 11:31:07;;;;;;;61.33;33.17;;;;;;;2.05;100.00;101375.71;5129772;55;1141272;-67
2022/11/29 11:36:26;;;;;;;61.23;31.33;;;;;;;2.03;100.00;101378.81;5132545;56;1140927;-66
2022/11/29 11:47:20;;;;;;;67.50;34.78;;;;;;;2.05;100.00;101386.15;5079930;56;1141048;-66
2022/11/29 11:52:30;;;;;;;66.67;36.07;;;;;;;2.03;100.00;101382.72;5008016;55;1140974;-67
2022/11/29 11:57:36;;;;;;;62.07;31.03;;;;;;;2.03;100.00;101385.33;5017686;55;1141061;-64
2022/11/29 12:02:43;;;;;;;58.75;31.52;;;;;;;2.01;100.00;101383.22;5025377;55;1141061;-65
2022/11/29 12:07:59;;;;;;;60.57;31.70;;;;;;;2.01;100.00;101385.38;5036910;57;1140905;-68
2022/11/29 12:13:05;;;;;;;72.60;37.13;;;;;;;2.03;100.00;101380.11;5012152;56;1259418;-66
2022/11/29 12:18:15;;;;;;;64.17;32.30;;;;;;;2.00;100.00;101383.66;5023391;56;1141452;-66
2022/11/29 12:23:35;;;;;;;81.33;43.97;;;;;;;1.98;100.00;101390.70;5032156;56;1140899;-68
2022/11/29 12:28:45;;;;;;;70.63;34.30;;;;;;;1.96;100.00;101383.37;5012833;56;1141138;-68
2022/11/29 12:34:17;;;;;;;70.33;34.97;;;;;;;2.01;100.00;101386.67;5012258;56;1140882;-69
2022/11/29 12:39:42;;;;;;;65.73;31.60;;;;;;;2.04;100.00;101385.74;5144112;55;1141015;-68
2022/11/29 12:45:04;;;;;;;63.53;32.23;;;;;;;2.03;100.00;101395.77;5123389;55;1141004;-65
2022/11/29 12:50:36;;;;;;;63.63;31.17;;;;;;;2.01;100.00;101393.20;5106901;55;1141103;-65
2022/11/29 12:56:01;;;;;;;61.98;32.78;;;;;;;2.01;100.00;101400.17;5022875;56;1141082;-68
2022/11/29 13:01:20;;;;;;;73.20;37.43;;;;;;;2.01;100.00;101402.78;5066083;55;1140830;-66
2022/11/29 13:06:49;;;;;;;68.63;31.07;;;;;;;2.00;100.00;101418.88;5045104;56;1140885;-68
2022/11/29 13:12:21;;;;;;;57.15;29.30;;;;;;;1.99;100.00;101413.25;5009397;57;1140856;-65
2022/11/29 13:17:43;;;;;;;64.90;33.50;;;;;;;1.99;100.00;101409.34;4931393;58;1141157;-67
2022/11/29 13:22:56;;;;;;;69.87;34.53;;;;;;;1.95;100.00;101420.78;4946986;58;1141059;-69
2022/11/29 13:28:07;;;;;;;61.92;31.62;;;;;;;1.96;100.00;101417.28;4903268;57;1140889;-67
2022/11/29 13:33:57;;;;;;;67.23;32.40;;;;;;;2.02;100.00;101428.83;4942442;58;1141041;-65
2022/11/29 13:39:25;;;;;;;70.03;35.57;;;;;;;2.02;100.00;101427.52;4937962;57;1141015;-67
2022/11/29 13:44:52;;;;;;;61.43;30.20;;;;;;;2.03;100.00;101434.91;4944902;57;1141221;-67
2022/11/29 13:50:05;;;;;;;61.70;30.17;;;;;;;2.03;100.00;101438.37;4946691;57;1141000;-66
2022/11/29 13:55:21;;;;;;;69.00;34.03;;;;;;;2.00;100.00;101440.20;4914458;57;1140887;-66
2022/11/29 14:00:35;;;;;;;82.15;43.20;;;;;;;1.99;100.00;101451.08;4978199;56;1140883;-67
2022/11/29 14:05:41;;;;;;;86.60;40.77;;;;;;;2.01;100.00;101456.27;4965878;57;1141088;-68
2022/11/29 14:10:50;;;;;;;72.15;35.83;;;;;;;1.99;100.00;101458.91;4943974;57;1141147;-70
2022/11/29 14:15:59;;;;;;;67.50;33.63;;;;;;;1.97;100.00;101459.88;4887390;58;1141190;-67
2022/11/29 14:21:06;;;;;;;81.83;38.90;;;;;;;1.96;100.00;101464.23;4955553;57;1141004;-69
2022/11/29 14:26:22;;;;;;;108.43;46.10;;;;;;;1.99;100.00;101472.40;4877121;58;1141127;-65
2022/11/29 14:31:52;;;;;;;100.97;45.70;;;;;;;1.99;100.00;101469.79;4974767;57;1143025;-66
2022/11/29 14:37:11;;;;;;;112.80;56.40;;;;;;;1.99;100.00;101469.34;4920042;57;1143087;-68
2022/11/29 14:42:24;;;;;;;85.97;37.80;;;;;;;1.97;100.00;101471.61;5072992;56;1143110;-69
2022/11/29 14:47:40;;;;;;;85.50;38.23;;;;;;;1.98;100.00;101476.80;5051735;56;1151231;-68
2022/11/29 14:52:51;;;;;;;82.47;36.75;;;;;;;1.96;100.00;101479.89;5113450;55;1141137;-69
2022/11/29 14:58:07;;;;;;;78.35;36.08;;;;;;;1.94;100.00;101471.24;5046238;54;1140965;-67
2022/11/29 15:03:26;;;;;;;86.12;38.25;;;;;;;1.94;100.00;101471.69;5072879;55;1140936;-67
2022/11/29 15:08:50;;;;;;;90.03;42.67;;;;;;;1.93;100.00;101476.50;5043187;55;1140993;-65
2022/11/29 15:14:23;;;;;;;87.80;39.47;;;;;;;1.91;100.00;101473.07;5076432;56;1140917;-65
2022/11/29 15:19:57;;;;;;;71.87;36.53;;;;;;;1.93;100.00;101481.72;5174485;55;1141244;-65
2022/11/29 15:25:14;;;;;;;83.60;42.03;;;;;;;1.91;100.00;101480.90;5184538;55;1141319;-65
2022/11/29 15:30:37;;;;;;;75.07;34.87;;;;;;;1.86;100.00;101481.45;5151327;55;1141104;-64
2022/11/29 15:35:48;;;;;;;73.43;36.40;;;;;;;1.84;100.00;101484.55;5039503;56;1141010;-66
2022/11/29 15:40:57;;;;;;;85.97;37.90;;;;;;;1.83;100.00;101486.33;5035606;56;1141069;-67
2022/11/29 15:46:02;;;;;;;96.10;39.87;;;;;;;1.82;100.00;101482.45;5102758;56;1140906;-67
2022/11/29 15:51:34;;;;;;;165.40;73.20;;;;;;;1.85;100.00;101498.00;5088405;55;1141174;-67
2022/11/29 15:56:50;;;;;;;145.13;71.13;;;;;;;1.89;100.00;101492.67;5065440;55;1143038;-68
2022/11/29 16:02:00;;;;;;;96.57;46.60;;;;;;;1.91;100.00;101496.55;5079258;56;1143018;-69
2022/11/29 16:07:06;;;;;;;82.17;37.83;;;;;;;1.89;100.00;101502.25;5063078;56;1141299;-65
2022/11/29 16:12:17;;;;;;;71.83;36.33;;;;;;;1.88;100.00;101495.31;5017843;56;1140858;-70
2022/11/29 16:17:31;;;;;;;77.13;39.60;;;;;;;1.89;100.00;101500.94;5061144;56;1148763;-67
2022/11/29 16:22:37;;;;;;;78.65;40.90;;;;;;;1.87;100.00;101505.34;5098514;56;1141193;-67
2022/11/29 16:27:43;;;;;;;83.17;39.67;;;;;;;1.88;100.00;101507.91;5118352;56;1140943;-68
2022/11/29 16:32:58;;;;;;;85.13;41.50;;;;;;;1.89;100.00;101520.06;5067021;56;1141036;-66
2022/11/29 16:38:05;;;;;;;83.30;38.60;;;;;;;1.86;100.00;101525.80;5058396;55;1140959;-65
2022/11/29 16:43:25;;;;;;;73.30;34.80;;;;;;;1.83;100.00;101515.47;5076416;56;1141173;-67
2022/11/29 16:48:36;;;;;;;73.93;35.07;;;;;;;1.85;100.00;101524.08;5008841;56;1141002;-66
2022/11/29 16:53:50;;;;;;;173.25;78.55;;;;;;;1.86;100.00;101522.73;5079036;55;1141332;-64
2022/11/29 16:59:01;;;;;;;85.30;42.33;;;;;;;1.88;100.00;101525.31;5178571;55;1143073;-65
2022/11/29 17:04:09;;;;;;;82.80;39.27;;;;;;;1.85;100.00;101531.91;5097553;55;1140946;-67
2022/11/29 17:09:22;;;;;;;75.97;36.97;;;;;;;1.85;100.00;101539.28;5081569;56;1140850;-68
2022/11/29 17:14:27;;;;;;;;;;;;;;;1.86;100.00;101540.14;5018555;56;1141177;-68
2022/11/29 17:19:33;;;;;;;77.13;35.57;;;;;;;1.87;100.00;101539.25;4981596;57;974161;-65
2022/11/29 17:24:40;;;;;;;78.15;36.53;;;;;;;1.85;100.00;101541.89;5064028;56;1138934;-66
2022/11/29 17:29:45;;;;;;;63.50;34.37;;;;;;;1.89;100.00;101546.59;5133466;55;1140937;-66
2022/11/29 17:34:51;;;;;;;72.47;37.70;;;;;;;1.91;100.00;101560.45;5078644;55;1140995;-66
2022/11/29 17:39:57;;;;;;;75.50;36.80;;;;;;;1.94;100.00;101559.94;5060708;56;1141345;-67
2022/11/29 17:45:03;;;;;;;71.07;36.53;;;;;;;1.93;100.00;101565.19;5074656;56;1141027;-68
2022/11/29 17:50:08;;;;;;;72.37;35.50;;;;;;;1.94;100.00;101564.30;5033599;56;1140712;-68
2022/11/29 17:55:14;;;;;;;71.17;36.83;;;;;;;1.95;100.00;101560.80;5033418;56;1141207;-67
2022/11/29 18:00:20;;;;;;;83.93;37.00;;;;;;;1.93;100.00;101567.80;5059930;55;1141081;-67
2022/11/29 18:05:27;;;;;;;71.92;33.48;;;;;;;1.89;100.00;101563.55;5001370;56;1141301;-68
2022/11/29 18:10:33;;;;;;;71.93;34.27;;;;;;;1.92;100.00;101576.08;5095255;55;1140946;-68
2022/11/29 18:15:38;;;;;;;74.58;37.13;;;;;;;1.96;100.00;101575.55;5065398;55;1141217;-68
2022/11/29 18:20:44;;;;;;;88.43;38.90;;;;;;;1.93;100.00;101580.39;5069602;56;1140998;-68
2022/11/29 18:26:11;;;;;;;83.10;39.30;;;;;;;1.88;100.00;101573.13;5085838;55;1140998;-64
2022/11/29 18:31:26;;;;;;;78.30;37.07;;;;;;;1.88;100.00;101573.13;5084486;55;1141082;-67
2022/11/29 18:36:34;;;;;;;98.40;42.27;;;;;;;1.94;100.00;101586.47;5085898;55;1140939;-67
2022/11/29 18:41:44;;;;;;;88.30;42.47;;;;;;;1.92;100.00;101586.51;5085246;55;1140911;-68
2022/11/29 18:46:50;;;;;;;86.70;45.23;;;;;;;1.94;100.00;101589.08;5039827;56;1141000;-67
2022/11/29 18:51:56;;;;;;;87.17;45.10;;;;;;;1.94;100.00;101593.85;5044094;56;1141136;-67
2022/11/29 18:57:02;;;;;;;85.80;39.13;;;;;;;1.95;100.00;101589.05;5064309;56;1140943;-69
2022/11/29 19:02:10;;;;;;;76.40;35.50;;;;;;;1.93;100.00;101594.74;5122008;55;1140933;-68
2022/11/29 19:07:15;;;;;;;91.27;40.70;;;;;;;1.93;100.00;101593.89;5128721;55;1140955;-68
2022/11/29 19:12:21;;;;;;;112.42;48.35;;;;;;;1.93;100.00;101602.57;5145210;55;1140940;-66
2022/11/29 19:17:28;;;;;;;94.90;41.77;;;;;;;1.92;100.00;101601.30;5128263;55;1142977;-68
2022/11/29 19:22:33;;;;;;;92.70;46.00;;;;;;;1.95;100.00;101596.02;5127685;55;1140966;-65
2022/11/29 19:27:39;;;;;;;77.13;41.10;;;;;;;1.99;100.00;101597.18;5076325;56;1141149;-67
2022/11/29 19:32:45;;;;;;;82.77;40.60;;;;;;;1.99;100.00;101600.23;5095871;56;1140929;-68
2022/11/29 19:37:51;;;;;;;91.90;43.30;;;;;;;1.95;100.00;101596.88;5077988;55;1140982;-67
2022/11/29 19:42:56;;;;;;;98.53;45.93;;;;;;;1.98;100.00;101600.72;5035931;56;1141010;-71
2022/11/29 19:48:02;;;;;;;92.83;44.27;;;;;;;2.01;100.00;101600.61;5114204;56;1140988;-72
2022/11/29 19:53:09;;;;;;;72.73;39.47;;;;;;;2.00;100.00;101600.20;5055673;55;1140984;-67
2022/11/29 19:58:14;;;;;;;78.43;40.23;;;;;;;1.98;100.00;101607.23;5105134;55;1141001;-69
2022/11/29 20:03:22;;;;;;;92.85;44.38;;;;;;;2.01;100.00;101613.66;5088552;56;1141208;-67
2022/11/29 20:08:28;;;;;;;87.50;41.43;;;;;;;2.03;100.00;101617.09;5066074;56;1141069;-67
2022/11/29 20:13:34;;;;;;;85.30;38.27;;;;;;;2.01;100.00;101619.33;5068057;56;1140954;-71
2022/11/29 20:18:43;;;;;;;101.47;47.33;;;;;;;2.00;100.00;101617.16;5063319;56;1141033;-69
2022/11/29 20:23:49;;;;;;;80.90;40.13;;;;;;;2.02;100.00;101623.20;5117644;55;1143100;-68
2022/11/29 20:28:54;;;;;;;73.47;35.63;;;;;;;2.00;100.00;101613.69;5034528;56;1140840;-68
2022/11/29 20:34:00;;;;;;;85.57;37.03;;;;;;;2.00;100.00;101621.52;5047336;56;1140979;-69
2022/11/29 20:39:50;;;;;;;81.83;38.60;;;;;;;2.03;100.00;101622.31;5136398;55;1140899;-66
2022/11/29 20:45:04;;;;;;;79.30;38.90;;;;;;;2.04;100.00;101621.41;5116896;55;1141014;-67
2022/11/29 20:50:13;;;;;;;;;;;;;;;2.02;100.00;101623.65;5132735;55;1140867;-65
2022/11/29 20:55:19;;;;;;;79.33;37.23;;;;;;;2.03;100.00;101625.37;5155207;55;974114;-65
2022/11/29 21:00:25;;;;;;;100.77;43.90;;;;;;;2.02;100.00;101624.95;5019086;56;1138801;-69
2022/11/29 21:05:31;;;;;;;82.02;38.67;;;;;;;1.99;100.00;101623.27;5074324;56;1143111;-68
2022/11/29 21:10:36;;;;;;;80.42;39.50;;;;;;;2.00;100.00;101633.26;5088409;56;1140821;-68
2022/11/29 21:15:42;;;;;;;84.17;40.40;;;;;;;2.03;100.00;101635.80;5085549;56;1140923;-67
2022/11/29 21:20:53;;;;;;;85.50;40.33;;;;;;;2.01;100.00;101636.28;5100064;56;1140936;-66
2022/11/29 21:26:09;;;;;;;72.53;37.03;;;;;;;1.96;100.00;101636.42;5079695;56;1141055;-68
2022/11/29 21:31:17;;;;;;;69.33;35.13;;;;;;;1.95;100.00;101633.39;5120978;56;1140965;-66
2022/11/29 21:36:23;;;;;;;81.17;38.98;;;;;;;1.96;100.00;101638.16;5048221;56;1140931;-68
2022/11/29 21:41:28;;;;;;;79.57;39.93;;;;;;;1.97;100.00;101645.10;5008719;56;1141013;-67
2022/11/29 21:46:34;;;;;;;87.02;37.48;;;;;;;1.96;100.00;101650.77;5011118;55;1140907;-68
2022/11/29 21:51:41;;;;;;;81.93;39.10;;;;;;;2.00;100.00;101647.16;5031505;56;1141143;-68
2022/11/29 21:56:47;;;;;;;83.90;39.67;;;;;;;2.03;100.00;101653.62;5073693;56;1141158;-68
2022/11/29 22:01:53;;;;;;;69.77;36.50;;;;;;;1.98;100.00;101648.98;5069650;55;1140945;-65
2022/11/29 22:06:59;;;;;;;97.20;43.43;;;;;;;2.01;100.00;101647.58;5117448;56;1140775;-66
2022/11/29 22:12:05;;;;;;;73.07;37.87;;;;;;;2.03;100.00;101650.16;5014215;56;1140851;-70
2022/11/29 22:17:10;;;;;;;78.93;37.67;;;;;;;1.91;100.00;101641.33;5007551;56;1140988;-66
2022/11/29 22:22:18;;;;;;;73.83;36.88;;;;;;;1.94;100.00;101649.08;5034713;55;1141129;-69
2022/11/29 22:27:23;;;;;;;71.13;34.60;;;;;;;2.03;100.00;101647.55;5095202;56;1141231;-66
2022/11/29 22:32:29;;;;;;;75.33;38.30;;;;;;;2.03;100.00;101647.55;5097996;56;1141073;-70
2022/11/29 22:37:35;;;;;;;77.00;38.35;;;;;;;2.04;100.00;101650.12;5134408;55;1141219;-68
2022/11/29 22:42:42;;;;;;;69.83;34.80;;;;;;;1.97;100.00;101640.74;5195862;55;1141211;-69
2022/11/29 22:47:47;;;;;;;73.97;35.60;;;;;;;2.04;100.00;101654.48;5110063;55;1140859;-67
2022/11/29 22:52:54;;;;;;;81.27;41.00;;;;;;;2.00;100.00;101648.47;5084725;56;1140990;-64
2022/11/29 22:58:00;;;;;;;74.50;38.97;;;;;;;1.95;100.00;101652.96;5085504;56;1140920;-67
2022/11/29 23:03:06;;;;;;;72.90;35.77;;;;;;;1.99;100.00;101651.97;5158515;55;1141068;-68
2022/11/29 23:08:12;;;;;;;81.00;39.60;;;;;;;2.01;100.00;101649.33;5109023;55;1141193;-65
2022/11/29 23:13:19;;;;;;;80.60;37.85;;;;;;;1.98;100.00;101647.67;5153316;56;1140878;-67
2022/11/29 23:18:25;;;;;;;78.57;36.13;;;;;;;1.98;100.00;101650.73;5027698;56;1141038;-68
2022/11/29 23:23:31;;;;;;;76.40;38.17;;;;;;;2.02;100.00;101645.83;5024395;57;1140819;-70
2022/11/29 23:28:37;;;;;;;85.60;41.67;;;;;;;2.01;100.00;101650.19;5024397;56;1140971;-70